Time;durP1;ratioP1;P1;durP2;ratioP2;P2;SDS_P1;SDS_P2;PMS_P1;PMS_P2;Temp;Humidity;BMP_temperature;BMP_pressure;BME280_temperature;BME280_humidity;BME280_pressure;Samples;Min_cycle;Max_cycle;Signal;HPM_P1;HPM_P2
2023/10/07 00:02:33;;;;;;;9.02;3.63;;;18.20;98.20;;;;;;10496737;28;20749;-66
2023/10/07 00:07:33;;;;;;;7.68;3.65;;;18.30;98.20;;;;;;10497789;28;20781;-66
2023/10/07 00:12:35;;;;;;;8.38;4.20;;;18.30;98.20;;;;;;10501129;28;20424;-66
2023/10/07 00:17:39;;;;;;;8.07;3.97;;;18.30;98.20;;;;;;10492845;28;20403;-66
2023/10/07 00:22:48;;;;;;;7.95;3.95;;;18.20;98.10;;;;;;10496561;28;20410;-65
2023/10/07 00:27:49;;;;;;;7.97;4.03;;;18.20;98.10;;;;;;10493284;28;20888;-64
2023/10/07 00:32:50;;;;;;;7.78;3.75;;;18.20;98.20;;;;;;10501166;28;20399;-67
2023/10/07 00:37:52;;;;;;;9.10;3.70;;;18.20;98.20;;;;;;10495054;28;20424;-65
2023/10/07 00:42:53;;;;;;;8.07;3.85;;;18.20;98.10;;;;;;10504611;28;20899;-66
2023/10/07 00:48:00;;;;;;;7.20;3.87;;;18.20;98.10;;;;;;10501328;28;20390;-64
2023/10/07 00:53:05;;;;;;;7.93;3.80;;;18.20;98.10;;;;;;10502941;28;21033;-66
2023/10/07 00:58:13;;;;;;;9.80;3.92;;;18.20;98.10;;;;;;10503797;28;20410;-65
2023/10/07 01:03:23;;;;;;;7.53;3.83;;;18.20;98.10;;;;;;10502266;28;20486;-65
2023/10/07 01:08:34;;;;;;;6.60;3.93;;;18.20;98.10;;;;;;10494469;28;20443;-65
2023/10/07 01:13:35;;;;;;;7.28;3.92;;;18.20;98.10;;;;;;10487625;28;20402;-65
2023/10/07 01:18:38;;;;;;;8.00;3.87;;;18.20;98.10;;;;;;10492554;28;20436;-65
2023/10/07 01:23:40;;;;;;;7.73;4.00;;;18.20;98.10;;;;;;10495817;28;20808;-65
2023/10/07 01:28:43;;;;;;;7.85;3.95;;;18.20;98.00;;;;;;10496425;28;20416;-66
2023/10/07 01:33:47;;;;;;;7.93;3.63;;;18.20;98.10;;;;;;10501646;28;20575;-66
2023/10/07 01:38:51;;;;;;;7.70;3.93;;;18.20;98.10;;;;;;10502192;28;20406;-66
2023/10/07 01:44:04;;;;;;;9.30;3.67;;;18.20;98.00;;;;;;10499877;28;20429;-66
2023/10/07 01:49:11;;;;;;;7.32;3.80;;;18.20;98.00;;;;;;10500482;28;20465;-66
2023/10/07 01:54:12;;;;;;;7.50;3.90;;;18.20;97.90;;;;;;10484939;28;20482;-64
2023/10/07 02:04:18;;;;;;;6.72;4.03;;;18.20;97.80;;;;;;10506707;28;20407;-65
2023/10/07 02:09:26;;;;;;;8.95;4.28;;;18.20;98.00;;;;;;10497658;28;20403;-65
2023/10/07 02:14:28;;;;;;;8.85;4.20;;;18.30;98.10;;;;;;10490862;28;20428;-65
2023/10/07 02:19:29;;;;;;;7.55;4.03;;;18.20;98.00;;;;;;10490830;28;20418;-67
2023/10/07 02:24:31;;;;;;;7.97;4.38;;;18.30;98.00;;;;;;10499429;28;20414;-65
2023/10/07 02:29:33;;;;;;;8.93;4.73;;;18.20;98.00;;;;;;10504371;28;20401;-66
2023/10/07 02:34:35;;;;;;;8.95;4.18;;;18.30;98.10;;;;;;10489079;28;20414;-65
2023/10/07 02:39:45;;;;;;;8.60;4.93;;;18.30;98.10;;;;;;10503524;28;20769;-66
2023/10/07 02:44:46;;;;;;;9.52;4.40;;;18.30;98.30;;;;;;10503930;28;20841;-65
2023/10/07 02:49:50;;;;;;;9.27;4.20;;;18.30;98.30;;;;;;10502242;28;20770;-66
2023/10/07 02:55:13;;;;;;;10.23;4.60;;;18.30;98.30;;;;;;10513358;28;20430;-66
2023/10/07 03:00:18;;;;;;;9.67;4.63;;;18.30;98.30;;;;;;10497102;28;20407;-65
2023/10/07 03:05:29;;;;;;;10.15;3.95;;;18.30;98.30;;;;;;10511018;28;20397;-66
2023/10/07 03:10:43;;;;;;;10.17;4.63;;;18.30;98.40;;;;;;10515130;28;20471;-65
2023/10/07 03:15:46;;;;;;;8.07;4.35;;;18.30;98.40;;;;;;10499051;28;20853;-66
2023/10/07 03:20:58;;;;;;;8.10;4.43;;;18.30;98.40;;;;;;10501163;28;20480;-66
2023/10/07 03:31:00;;;;;;;9.27;4.60;;;18.30;98.40;;;;;;10515497;28;20800;-66
2023/10/07 03:41:09;;;;;;;9.98;4.40;;;18.30;98.50;;;;;;10515996;28;20491;-65
2023/10/07 03:46:10;;;;;;;7.47;4.30;;;18.30;98.50;;;;;;10500496;28;20394;-65
2023/10/07 03:51:12;;;;;;;8.70;4.30;;;18.40;98.60;;;;;;10517787;28;20492;-66
2023/10/07 03:56:14;;;;;;;9.38;4.40;;;18.30;98.50;;;;;;10520445;28;20402;-66
2023/10/07 04:01:18;;;;;;;8.80;4.50;;;18.40;98.50;;;;;;10510178;28;20773;-66
2023/10/07 04:06:30;;;;;;;9.85;4.60;;;18.50;98.60;;;;;;10506092;28;20469;-66
2023/10/07 04:11:34;;;;;;;8.43;4.43;;;18.30;98.50;;;;;;10510065;28;20422;-65
2023/10/07 04:16:36;;;;;;;7.90;4.70;;;18.30;98.40;;;;;;10509231;28;20448;-65
2023/10/07 04:21:39;;;;;;;10.00;4.82;;;18.30;98.40;;;;;;10481111;28;20414;-65
2023/10/07 04:26:47;;;;;;;6.93;4.20;;;18.30;98.40;;;;;;10486803;28;20417;-66
2023/10/07 04:31:51;;;;;;;8.13;4.40;;;18.30;98.40;;;;;;10478681;28;20538;-65
2023/10/07 04:42:05;;;;;;;9.57;4.57;;;18.30;98.40;;;;;;10493809;28;20723;-66
2023/10/07 04:52:30;;;;;;;7.40;4.07;;;18.40;98.40;;;;;;10483568;28;20480;-66
2023/10/07 04:57:55;;;;;;;8.70;4.43;;;18.50;98.40;;;;;;10495185;28;20436;-64
2023/10/07 05:03:08;;;;;;;8.20;4.37;;;18.40;98.70;;;;;;10489349;28;20434;-65
2023/10/07 05:08:17;;;;;;;7.97;4.13;;;18.40;98.70;;;;;;10486904;28;20753;-66
2023/10/07 05:13:18;;;;;;;7.47;4.20;;;18.40;98.40;;;;;;10484357;28;20497;-66
2023/10/07 05:18:19;;;;;;;10.27;4.47;;;18.40;98.40;;;;;;10489024;28;20398;-66
2023/10/07 05:23:20;;;;;;;7.23;4.60;;;18.30;98.40;;;;;;10486849;28;20885;-66
2023/10/07 05:28:21;;;;;;;8.30;4.43;;;18.30;98.50;;;;;;10489907;28;20398;-66
2023/10/07 05:33:26;;;;;;;7.32;4.18;;;18.40;98.50;;;;;;10491659;28;20419;-67
2023/10/07 05:38:26;;;;;;;9.77;4.97;;;18.40;98.50;;;;;;10497154;28;20417;-66
2023/10/07 05:43:29;;;;;;;8.07;4.90;;;18.30;98.50;;;;;;10492476;28;20888;-66
2023/10/07 05:48:29;;;;;;;8.50;4.93;;;18.30;98.50;;;;;;10495704;28;20473;-66
2023/10/07 05:53:30;;;;;;;8.10;4.70;;;18.40;98.50;;;;;;10487074;28;20900;-65
2023/10/07 05:58:32;;;;;;;8.17;4.40;;;18.30;98.50;;;;;;10474593;28;20431;-66
2023/10/07 06:03:33;;;;;;;7.40;4.37;;;18.30;98.50;;;;;;10478340;28;20398;-66
2023/10/07 06:08:34;;;;;;;8.68;4.72;;;18.30;98.50;;;;;;10483407;28;20455;-65
2023/10/07 06:13:37;;;;;;;10.03;4.87;;;18.30;98.50;;;;;;10488993;28;20401;-66
2023/10/07 06:18:39;;;;;;;8.32;4.63;;;18.30;98.60;;;;;;10487557;28;20768;-66
2023/10/07 06:23:41;;;;;;;10.18;4.72;;;18.40;98.70;;;;;;10487808;28;20408;-65
2023/10/07 06:28:45;;;;;;;7.50;4.32;;;18.30;98.60;;;;;;10498269;28;20995;-65
2023/10/07 06:34:32;;;;;;;8.95;4.93;;;18.30;98.60;;;;;;10486552;28;20416;-64
2023/10/07 06:39:07;;;;;;;7.53;4.90;;;18.30;98.60;;;;;;10486382;28;20414;-66
2023/10/07 06:44:11;;;;;;;9.25;5.05;;;18.30;98.50;;;;;;10492274;28;20414;-64
2023/10/07 06:49:17;;;;;;;9.45;4.90;;;18.30;98.50;;;;;;10494969;28;20414;-65
2023/10/07 06:54:17;;;;;;;8.93;4.78;;;18.30;98.50;;;;;;10492196;28;20895;-65
2023/10/07 06:59:18;;;;;;;8.03;4.27;;;18.30;98.50;;;;;;10494231;28;20414;-64
2023/10/07 07:04:19;;;;;;;7.23;4.73;;;18.30;98.50;;;;;;10495582;28;20402;-66
2023/10/07 07:14:46;;;;;;;9.90;5.47;;;18.40;98.50;;;;;;10491682;28;20972;-65
2023/10/07 07:20:19;;;;;;;10.30;5.03;;;18.30;98.60;;;;;;10490177;28;20844;-63
2023/10/07 07:30:31;;;;;;;8.82;4.72;;;18.40;98.70;;;;;;10487981;28;20401;-64
2023/10/07 07:35:38;;;;;;;8.57;4.73;;;18.40;98.70;;;;;;10491268;28;20409;-65
2023/10/07 07:40:42;;;;;;;7.30;4.90;;;18.50;98.60;;;;;;10497667;28;20899;-65
2023/10/07 07:45:46;;;;;;;8.85;4.50;;;18.40;98.60;;;;;;10504887;28;20883;-64
2023/10/07 07:50:48;;;;;;;7.50;4.45;;;18.50;98.60;;;;;;10492329;28;20401;-64
2023/10/07 07:55:51;;;;;;;8.50;4.57;;;18.50;98.70;;;;;;10503138;28;20885;-65
2023/10/07 08:00:59;;;;;;;7.97;4.38;;;18.50;98.60;;;;;;10502717;28;20922;-65
2023/10/07 08:06:01;;;;;;;8.10;4.40;;;18.60;98.60;;;;;;10502274;28;20392;-66
2023/10/07 08:11:01;;;;;;;8.23;4.43;;;18.60;98.70;;;;;;10491629;28;20458;-65
2023/10/07 08:16:05;;;;;;;7.65;4.15;;;18.60;98.70;;;;;;10493906;28;20563;-65
2023/10/07 08:21:13;;;;;;;9.13;3.95;;;18.60;98.80;;;;;;10501790;28;20410;-66
2023/10/07 08:26:20;;;;;;;9.43;4.03;;;18.70;98.70;;;;;;10500228;28;20402;-66
2023/10/07 08:31:22;;;;;;;9.00;4.13;;;18.70;98.80;;;;;;10502944;28;20710;-65
2023/10/07 08:36:29;;;;;;;5.95;3.75;;;18.80;98.70;;;;;;10501455;28;20809;-66
2023/10/07 08:41:31;;;;;;;7.57;3.50;;;18.80;98.70;;;;;;10499350;28;20904;-66
2023/10/07 08:46:37;;;;;;;6.93;3.90;;;18.90;98.70;;;;;;10510487;28;20806;-64
2023/10/07 08:51:41;;;;;;;7.65;3.65;;;18.90;98.70;;;;;;10500596;28;20406;-65
2023/10/07 08:56:44;;;;;;;9.60;3.70;;;18.90;98.70;;;;;;10511832;28;20433;-65
2023/10/07 09:01:46;;;;;;;9.32;3.80;;;19.50;98.80;;;;;;10492170;28;20407;-64
2023/10/07 09:06:50;;;;;;;9.65;4.00;;;19.10;98.70;;;;;;10500032;28;20406;-65
2023/10/07 09:11:52;;;;;;;6.60;3.60;;;19.10;98.60;;;;;;10498683;28;20413;-65
2023/10/07 09:16:54;;;;;;;7.72;3.50;;;19.10;98.60;;;;;;10503128;28;20407;-65
2023/10/07 09:21:57;;;;;;;7.38;3.47;;;19.10;98.60;;;;;;10485253;28;20411;-64
2023/10/07 09:26:58;;;;;;;7.57;3.25;;;19.20;98.60;;;;;;10498955;28;20401;-66
2023/10/07 09:32:16;;;;;;;8.07;3.50;;;19.30;98.60;;;;;;10504064;28;20412;-66
2023/10/07 09:37:29;;;;;;;7.30;3.40;;;19.30;98.50;;;;;;10500023;28;20848;-66
2023/10/07 09:42:36;;;;;;;7.43;3.50;;;19.40;98.50;;;;;;10506853;28;20410;-65
2023/10/07 09:47:38;;;;;;;6.40;3.30;;;19.50;98.40;;;;;;10497265;28;20466;-65
2023/10/07 09:52:42;;;;;;;8.73;3.45;;;19.50;98.40;;;;;;10503681;28;20734;-66
2023/10/07 09:58:06;;;;;;;8.43;3.47;;;19.50;98.30;;;;;;10506626;28;20394;-65
2023/10/07 10:03:12;;;;;;;8.10;3.77;;;19.50;98.20;;;;;;10500267;28;20563;-65
2023/10/07 10:08:35;;;;;;;8.55;3.67;;;19.50;98.30;;;;;;10496925;28;20401;-64
2023/10/07 10:18:45;;;;;;;7.65;3.42;;;19.50;98.30;;;;;;10500698;28;20403;-65
2023/10/07 10:23:51;;;;;;;7.28;3.20;;;19.50;98.20;;;;;;10497179;28;20765;-65
2023/10/07 10:29:07;;;;;;;6.00;3.13;;;19.50;98.20;;;;;;10505968;28;20395;-65
2023/10/07 10:34:14;;;;;;;7.22;3.45;;;19.50;98.20;;;;;;10497450;28;20473;-64
2023/10/07 10:39:24;;;;;;;8.60;3.33;;;19.50;98.20;;;;;;10494108;28;20490;-65
2023/10/07 10:44:25;;;;;;;6.88;3.38;;;19.50;98.10;;;;;;10498907;28;20889;-65
2023/10/07 10:49:25;;;;;;;7.82;3.60;;;19.60;98.10;;;;;;10502941;28;20458;-65
2023/10/07 10:54:26;;;;;;;6.95;3.45;;;19.60;98.00;;;;;;10501229;28;20423;-66
2023/10/07 10:59:48;;;;;;;6.55;3.65;;;19.60;98.00;;;;;;10500417;28;20425;-66
2023/10/07 11:04:54;;;;;;;7.40;3.67;;;19.70;98.00;;;;;;10507521;28;20555;-66
2023/10/07 11:09:55;;;;;;;8.52;3.60;;;19.70;98.00;;;;;;10502746;28;20405;-64
2023/10/07 11:15:13;;;;;;;8.73;3.75;;;19.70;97.90;;;;;;10505375;28;20406;-65
2023/10/07 11:20:19;;;;;;;6.80;3.55;;;19.70;97.90;;;;;;10488044;28;20836;-66
2023/10/07 11:25:23;;;;;;;7.57;3.75;;;19.80;97.90;;;;;;10500689;28;20429;-66
2023/10/07 11:30:24;;;;;;;7.90;3.35;;;19.80;97.80;;;;;;10494271;28;20392;-64
2023/10/07 11:35:27;;;;;;;8.77;3.90;;;19.90;97.80;;;;;;10504204;28;20823;-66
2023/10/07 11:40:30;;;;;;;8.57;3.70;;;19.90;97.70;;;;;;10508882;28;20408;-66
2023/10/07 11:45:37;;;;;;;8.10;3.63;;;20.00;97.70;;;;;;10504179;28;20805;-65
2023/10/07 11:50:37;;;;;;;9.55;3.60;;;20.20;97.70;;;;;;10506246;28;20393;-64
2023/10/07 11:55:38;;;;;;;8.63;3.87;;;20.00;97.60;;;;;;10498879;28;20409;-65
2023/10/07 12:00:42;;;;;;;7.93;4.07;;;20.00;97.90;;;;;;10504603;28;20397;-65
2023/10/07 12:05:43;;;;;;;9.02;3.70;;;20.00;97.60;;;;;;10500401;28;20746;-66
2023/10/07 12:10:44;;;;;;;8.80;3.40;;;20.10;97.50;;;;;;10497123;28;20398;-65
2023/10/07 12:15:45;;;;;;;8.27;3.40;;;20.10;97.50;;;;;;10491650;28;20391;-65
2023/10/07 12:20:46;;;;;;;9.20;3.75;;;20.10;97.40;;;;;;10493947;28;20402;-64
2023/10/07 12:25:46;;;;;;;8.10;3.40;;;20.10;97.40;;;;;;10497470;28;20398;-65
2023/10/07 12:30:49;;;;;;;8.03;3.50;;;20.10;97.40;;;;;;10496278;28;20766;-64
2023/10/07 12:35:49;;;;;;;11.68;3.97;;;20.20;97.30;;;;;;10498060;28;20433;-66
2023/10/07 12:40:50;;;;;;;6.73;3.40;;;20.20;97.40;;;;;;10502819;28;20492;-65
2023/10/07 12:45:51;;;;;;;7.60;3.70;;;20.20;97.30;;;;;;10500930;28;20389;-65
2023/10/07 12:50:51;;;;;;;8.27;3.77;;;20.20;97.30;;;;;;10500443;28;20808;-66
2023/10/07 12:55:52;;;;;;;8.33;3.80;;;20.20;97.30;;;;;;10501122;28;20408;-66
2023/10/07 13:00:57;;;;;;;7.40;3.60;;;20.30;97.30;;;;;;10504350;28;20442;-65
2023/10/07 13:06:01;;;;;;;8.33;3.80;;;20.30;97.30;;;;;;10496973;28;20972;-66
2023/10/07 13:11:02;;;;;;;9.68;3.67;;;20.30;97.30;;;;;;10491930;28;20408;-65
2023/10/07 13:16:08;;;;;;;7.90;3.53;;;20.30;97.40;;;;;;10497004;28;20560;-65
2023/10/07 13:21:18;;;;;;;9.32;3.50;;;20.30;97.40;;;;;;10485841;28;20396;-66
2023/10/07 13:26:20;;;;;;;8.40;3.85;;;20.30;97.40;;;;;;10494853;28;20398;-65
2023/10/07 13:31:21;;;;;;;8.00;3.80;;;20.30;97.40;;;;;;10495985;28;20400;-65
2023/10/07 13:36:22;;;;;;;7.97;3.77;;;20.30;97.40;;;;;;10498163;28;20500;-65
2023/10/07 13:41:23;;;;;;;9.27;4.10;;;20.30;97.50;;;;;;10504667;28;20407;-65
2023/10/07 13:46:23;;;;;;;8.07;3.95;;;20.30;97.50;;;;;;10501139;28;20396;-65
2023/10/07 13:51:31;;;;;;;7.87;4.10;;;20.30;97.50;;;;;;10502238;28;20399;-65
2023/10/07 13:56:45;;;;;;;7.15;3.90;;;20.30;97.60;;;;;;10495927;28;20409;-65
2023/10/07 14:01:46;;;;;;;10.35;4.18;;;20.30;97.60;;;;;;10500888;28;20413;-65
2023/10/07 14:06:47;;;;;;;8.95;4.03;;;20.20;97.60;;;;;;10490520;28;20396;-64
2023/10/07 14:11:48;;;;;;;7.88;3.90;;;20.20;97.60;;;;;;10490387;28;20805;-65
2023/10/07 14:16:55;;;;;;;8.80;4.00;;;20.20;97.60;;;;;;10497883;28;20405;-65
2023/10/07 14:21:57;;;;;;;9.10;3.97;;;20.20;97.60;;;;;;10490214;28;20412;-65
2023/10/07 14:26:58;;;;;;;10.43;4.60;;;20.20;97.70;;;;;;10496238;28;20390;-64
2023/10/07 14:31:58;;;;;;;9.27;4.20;;;20.20;97.70;;;;;;10488341;28;20892;-65
2023/10/07 14:37:00;;;;;;;9.07;4.33;;;20.20;97.70;;;;;;10493605;28;20459;-64
2023/10/07 14:42:01;;;;;;;6.33;3.87;;;20.20;97.80;;;;;;10504761;28;20405;-65
2023/10/07 14:47:01;;;;;;;9.45;4.15;;;20.20;97.80;;;;;;10505143;28;20394;-65
2023/10/07 14:52:06;;;;;;;9.67;4.60;;;20.10;97.80;;;;;;10503299;28;21078;-65
2023/10/07 14:57:07;;;;;;;8.65;4.25;;;20.10;97.90;;;;;;10503378;28;20455;-65
2023/10/07 15:02:07;;;;;;;9.50;4.00;;;20.10;97.90;;;;;;10501665;28;21224;-66
2023/10/07 15:07:08;;;;;;;7.53;4.00;;;20.10;98.00;;;;;;10490609;28;21289;-66
2023/10/07 15:12:09;;;;;;;8.70;4.10;;;20.10;98.00;;;;;;10499530;28;20815;-65
2023/10/07 15:17:09;;;;;;;7.35;4.07;;;20.10;98.00;;;;;;10504512;28;20944;-64
2023/10/07 15:22:10;;;;;;;8.55;4.13;;;20.00;98.00;;;;;;10494713;28;20458;-63
2023/10/07 15:27:11;;;;;;;8.73;4.30;;;20.00;98.00;;;;;;10491094;28;20394;-64
2023/10/07 15:32:13;;;;;;;8.93;4.10;;;20.00;98.00;;;;;;10504497;28;20402;-64
2023/10/07 15:37:13;;;;;;;8.37;4.40;;;20.00;98.00;;;;;;10502664;28;20831;-65
2023/10/07 15:42:15;;;;;;;8.38;4.35;;;20.00;98.10;;;;;;10499943;28;20499;-64
2023/10/07 15:47:17;;;;;;;9.10;4.33;;;20.00;98.00;;;;;;10495080;28;21309;-65
2023/10/07 15:52:20;;;;;;;8.93;4.50;;;20.00;98.00;;;;;;10503784;28;20415;-64
2023/10/07 15:57:24;;;;;;;9.57;4.53;;;19.90;98.00;;;;;;10505711;28;20471;-64
2023/10/07 16:02:25;;;;;;;9.52;4.90;;;19.90;98.00;;;;;;10509848;28;20426;-65
2023/10/07 16:07:25;;;;;;;10.23;4.37;;;19.90;98.10;;;;;;10502769;28;20402;-63
2023/10/07 16:12:27;;;;;;;9.53;4.37;;;19.90;98.10;;;;;;10498529;28;20400;-64
2023/10/07 16:17:29;;;;;;;8.43;4.60;;;19.90;98.10;;;;;;10496319;28;20506;-65
2023/10/07 16:22:30;;;;;;;9.13;4.22;;;19.90;98.20;;;;;;10501135;28;20410;-64
2023/10/07 16:27:31;;;;;;;10.88;4.60;;;19.90;98.20;;;;;;10505160;28;20390;-67
2023/10/07 16:32:35;;;;;;;11.75;5.20;;;19.90;98.30;;;;;;10495416;28;20489;-70
2023/10/07 16:37:39;;;;;;;12.70;5.17;;;19.70;98.80;;;;;;10509964;28;20414;-67
2023/10/07 16:42:40;;;;;;;13.10;5.40;;;19.70;99.20;;;;;;10500145;28;20398;-66
2023/10/07 16:47:41;;;;;;;14.53;5.50;;;19.50;99.40;;;;;;10494158;28;20414;-67
2023/10/07 16:52:42;;;;;;;14.30;5.65;;;19.50;99.50;;;;;;10508113;28;20453;-64
2023/10/07 16:57:43;;;;;;;13.40;5.47;;;19.40;99.60;;;;;;10508429;28;20473;-64
2023/10/07 17:02:44;;;;;;;13.83;5.60;;;19.50;99.50;;;;;;10502405;28;20495;-63
2023/10/07 17:07:45;;;;;;;12.60;5.37;;;19.60;99.40;;;;;;10494569;28;20479;-63
2023/10/07 17:12:46;;;;;;;10.30;5.15;;;19.50;99.30;;;;;;10489198;28;20410;-64
2023/10/07 17:17:46;;;;;;;12.67;5.40;;;19.60;99.20;;;;;;10493196;28;20400;-64
2023/10/07 17:22:47;;;;;;;12.87;5.40;;;19.60;99.20;;;;;;10496344;28;20402;-64
2023/10/07 17:27:48;;;;;;;12.57;5.30;;;19.60;99.10;;;;;;10502164;28;20462;-64
2023/10/07 17:32:49;;;;;;;13.68;5.32;;;19.60;99.00;;;;;;10489732;28;20472;-64
2023/10/07 17:37:50;;;;;;;12.20;5.27;;;19.60;99.00;;;;;;10499821;28;20422;-64
2023/10/07 17:42:51;;;;;;;10.35;5.00;;;19.60;99.00;;;;;;10495700;28;20876;-64
2023/10/07 17:47:53;;;;;;;12.30;4.87;;;19.60;99.00;;;;;;10484945;28;20417;-64
2023/10/07 17:52:53;;;;;;;9.30;4.75;;;19.60;99.00;;;;;;10494564;28;20508;-63
2023/10/07 17:57:54;;;;;;;12.00;5.20;;;19.60;99.00;;;;;;10479705;28;20395;-64
2023/10/07 18:02:57;;;;;;;9.80;5.20;;;19.60;99.00;;;;;;10466555;28;20411;-65
2023/10/07 18:07:57;;;;;;;8.93;5.00;;;19.60;98.90;;;;;;10488229;28;20398;-65
2023/10/07 18:13:00;;;;;;;9.93;4.97;;;19.60;98.90;;;;;;10499557;28;20804;-65
2023/10/07 18:18:01;;;;;;;9.82;5.13;;;19.50;98.90;;;;;;10488295;28;20532;-65
2023/10/07 18:23:03;;;;;;;10.90;5.33;;;19.50;98.90;;;;;;10489392;28;20408;-65
2023/10/07 18:28:03;;;;;;;10.87;5.07;;;19.50;98.90;;;;;;10499620;28;20440;-64
2023/10/07 18:33:05;;;;;;;10.73;5.27;;;19.50;98.90;;;;;;10485446;28;20410;-64
2023/10/07 18:38:06;;;;;;;10.05;5.10;;;19.50;98.90;;;;;;10482788;28;20424;-63
2023/10/07 18:43:07;;;;;;;10.30;5.03;;;19.50;98.90;;;;;;10491293;28;20973;-64
2023/10/07 18:48:07;;;;;;;10.13;5.67;;;19.50;98.90;;;;;;10493072;28;20390;-65
2023/10/07 18:53:08;;;;;;;11.37;5.80;;;19.50;98.90;;;;;;10481949;28;20401;-63
2023/10/07 18:58:09;;;;;;;11.63;5.43;;;19.50;98.90;;;;;;10492425;28;20394;-65
2023/10/07 19:03:10;;;;;;;9.05;5.05;;;19.50;98.90;;;;;;10491619;28;20496;-64
2023/10/07 19:08:11;;;;;;;10.00;5.57;;;19.50;99.00;;;;;;10485862;28;20422;-63
2023/10/07 19:13:11;;;;;;;9.90;5.30;;;19.50;99.00;;;;;;10484340;28;20393;-65
2023/10/07 19:18:16;;;;;;;9.80;5.30;;;19.50;99.00;;;;;;10489722;28;20392;-64
2023/10/07 19:23:17;;;;;;;9.13;5.15;;;19.50;99.20;;;;;;10484135;28;20494;-65
2023/10/07 19:28:18;;;;;;;10.85;5.40;;;19.40;98.90;;;;;;10481558;28;20479;-65
2023/10/07 19:33:19;;;;;;;9.45;5.43;;;19.40;98.90;;;;;;10498712;28;20690;-64
2023/10/07 19:38:19;;;;;;;11.25;5.30;;;19.40;98.90;;;;;;10500982;28;20735;-65
2023/10/07 19:43:20;;;;;;;10.10;5.40;;;19.40;99.00;;;;;;10497597;28;20413;-64
2023/10/07 19:48:21;;;;;;;10.20;5.50;;;19.40;99.00;;;;;;10499698;28;20468;-65
2023/10/07 19:53:22;;;;;;;10.77;5.60;;;19.40;98.90;;;;;;10495449;28;20402;-65
2023/10/07 19:58:22;;;;;;;11.80;5.63;;;19.40;99.00;;;;;;10493707;28;20462;-65
2023/10/07 20:03:23;;;;;;;9.05;5.25;;;19.40;99.00;;;;;;10488308;28;20415;-65
2023/10/07 20:08:27;;;;;;;9.05;5.05;;;19.40;99.00;;;;;;10478939;28;20390;-65
2023/10/07 20:13:27;;;;;;;10.65;5.45;;;19.40;99.00;;;;;;10495624;28;20498;-64
2023/10/07 20:18:28;;;;;;;10.73;5.30;;;19.40;99.00;;;;;;10495962;28;20554;-63
2023/10/07 20:23:29;;;;;;;10.33;5.77;;;19.40;99.10;;;;;;10486536;28;20526;-64
2023/10/07 20:28:29;;;;;;;12.57;5.37;;;19.40;99.10;;;;;;10496464;28;20425;-64
2023/10/07 20:33:31;;;;;;;10.93;5.38;;;19.40;99.10;;;;;;10508670;28;20777;-66
2023/10/07 20:38:31;;;;;;;8.13;5.20;;;19.40;99.20;;;;;;10488739;28;20904;-63
2023/10/07 20:43:32;;;;;;;9.33;5.40;;;19.40;99.00;;;;;;10489577;28;20418;-64
2023/10/07 20:48:33;;;;;;;13.10;5.70;;;19.40;99.00;;;;;;10485747;28;20404;-64
2023/10/07 20:53:36;;;;;;;10.80;6.00;;;19.40;99.10;;;;;;10490293;28;20458;-65
2023/10/07 20:58:36;;;;;;;13.35;5.88;;;19.30;99.00;;;;;;10487125;28;20441;-65
2023/10/07 21:03:37;;;;;;;12.60;5.63;;;19.40;99.00;;;;;;10485532;28;20924;-65
2023/10/07 21:08:45;;;;;;;10.13;5.60;;;19.40;99.10;;;;;;10487371;28;20409;-65
2023/10/07 21:13:45;;;;;;;12.73;5.80;;;19.30;99.00;;;;;;10489630;28;20936;-64
2023/10/07 21:18:46;;;;;;;10.30;5.70;;;19.30;99.30;;;;;;10488279;28;20534;-66
2023/10/07 21:23:47;;;;;;;10.57;5.70;;;19.30;99.00;;;;;;10485797;28;20521;-65
2023/10/07 21:28:48;;;;;;;10.73;5.80;;;19.30;99.00;;;;;;10483626;28;20925;-64
2023/10/07 21:33:49;;;;;;;9.82;4.72;;;19.40;99.00;;;;;;10489056;28;20460;-65
2023/10/07 21:38:50;;;;;;;11.27;5.30;;;19.30;99.00;;;;;;10481841;28;20391;-66
2023/10/07 21:43:50;;;;;;;9.53;5.30;;;19.30;99.00;;;;;;10486083;28;20391;-65
2023/10/07 21:48:52;;;;;;;10.57;5.70;;;19.30;99.00;;;;;;10489205;28;20510;-65
2023/10/07 21:53:53;;;;;;;11.83;6.00;;;19.30;98.90;;;;;;10489152;28;20418;-65
2023/10/07 21:59:01;;;;;;;11.10;5.55;;;19.30;99.00;;;;;;10486680;28;20907;-65
2023/10/07 22:04:02;;;;;;;10.20;5.28;;;19.30;99.00;;;;;;10481363;28;20440;-66
2023/10/07 22:09:04;;;;;;;10.77;5.70;;;19.30;98.90;;;;;;10476691;28;20919;-63
2023/10/07 22:14:05;;;;;;;11.15;5.70;;;19.30;98.90;;;;;;10478674;28;20402;-64
2023/10/07 22:19:06;;;;;;;11.43;6.00;;;19.30;98.90;;;;;;10475660;28;20412;-64
2023/10/07 22:24:08;;;;;;;11.07;5.88;;;19.30;99.20;;;;;;10481919;28;20398;-65
2023/10/07 22:29:10;;;;;;;9.00;5.60;;;19.30;98.90;;;;;;10483237;28;20403;-64
2023/10/07 22:34:13;;;;;;;10.02;5.78;;;19.30;98.90;;;;;;10490331;28;20436;-64
2023/10/07 22:39:29;;;;;;;9.43;5.70;;;19.30;98.80;;;;;;10485205;28;20425;-65
2023/10/07 22:44:31;;;;;;;10.53;6.07;;;19.30;98.80;;;;;;10482976;28;20486;-64
2023/10/07 22:49:33;;;;;;;9.68;5.97;;;19.30;98.80;;;;;;10484832;28;20394;-65
2023/10/07 22:54:40;;;;;;;10.70;5.50;;;19.40;98.80;;;;;;10489809;28;20489;-65
2023/10/07 22:59:41;;;;;;;9.13;5.82;;;19.30;98.80;;;;;;10486839;28;20778;-65
2023/10/07 23:04:47;;;;;;;8.50;5.37;;;19.30;98.80;;;;;;10494130;28;20470;-64
2023/10/07 23:09:47;;;;;;;9.67;5.80;;;19.30;98.70;;;;;;10496277;28;20506;-65
2023/10/07 23:14:48;;;;;;;7.63;5.50;;;19.30;98.70;;;;;;10499420;28;20501;-65
2023/10/07 23:19:50;;;;;;;9.87;5.43;;;19.30;98.70;;;;;;10489277;28;20408;-65
2023/10/07 23:25:13;;;;;;;10.70;5.82;;;19.30;98.70;;;;;;10490149;28;20391;-64
2023/10/07 23:30:26;;;;;;;9.38;5.30;;;19.30;98.80;;;;;;10493638;28;20972;-63
2023/10/07 23:35:31;;;;;;;10.67;6.07;;;19.30;98.80;;;;;;10498786;28;20413;-64
2023/10/07 23:40:32;;;;;;;11.63;6.35;;;19.30;98.80;;;;;;10496929;28;20450;-64
2023/10/07 23:45:39;;;;;;;9.30;6.10;;;19.30;98.80;;;;;;10494892;28;20481;-64
2023/10/07 23:50:47;;;;;;;12.38;6.32;;;19.30;98.80;;;;;;10498739;28;20399;-64
2023/10/07 23:55:48;;;;;;;9.43;6.40;;;19.30;98.90;;;;;;10498116;28;20406;-65
